Kalona, Iowa
Current Conditions -  °F | °C
As of 4:11 AM on Saturday 20 Dec 2014 (Local Time) from KIOW Reporting Station
Overcast Overcast  
Wind Chill: -4°   Ceiling: 3400
Heat Index: -1°   Visibility: 10mi
Dew Point: -4°   Wind: 5mph
Humidity: 82%   Direction: 120°ESE
Pressure: 30.24"   Gusts: NA
Location:  41.48°N, 91.71°W
Report Text: KIOW 201011Z AUTO 12004KT 10SM SCT027 OVC034 M01/M04 A3024 RMK AO2 T10111039
Loading
Personal Weather Stations






























Interactive Weather Map New forecast layout! Learn more

10-Day Weather Forecast

Advertisements
Track Severe Weather on mobile